sensor_id;sensor_type;location;lat;lon;timestamp;P1;durP1;ratioP1;P2;durP2;ratioP2
27412;SDS011;14871;52.702;5.230;2023-08-06T00:01:52;16.58;;;11.63;;
27412;SDS011;14871;52.702;5.230;2023-08-06T00:04:17;13.23;;;11.82;;
27412;SDS011;14871;52.702;5.230;2023-08-06T00:06:44;14.05;;;11.50;;
27412;SDS011;14871;52.702;5.230;2023-08-06T00:09:10;15.50;;;12.13;;
27412;SDS011;14871;52.702;5.230;2023-08-06T00:11:35;14.88;;;12.27;;
27412;SDS011;14871;52.702;5.230;2023-08-06T00:14:01;16.15;;;12.30;;
27412;SDS011;14871;52.702;5.230;2023-08-06T00:16:26;15.85;;;13.65;;
27412;SDS011;14871;52.702;5.230;2023-08-06T00:18:52;14.18;;;12.68;;
27412;SDS011;14871;52.702;5.230;2023-08-06T00:21:17;15.25;;;13.23;;
27412;SDS011;14871;52.702;5.230;2023-08-06T00:23:43;14.07;;;12.70;;
27412;SDS011;14871;52.702;5.230;2023-08-06T00:26:09;15.00;;;12.52;;
27412;SDS011;14871;52.702;5.230;2023-08-06T00:28:34;14.55;;;13.05;;
27412;SDS011;14871;52.702;5.230;2023-08-06T00:31:00;15.02;;;12.70;;
27412;SDS011;14871;52.702;5.230;2023-08-06T00:33:25;15.48;;;13.05;;
27412;SDS011;14871;52.702;5.230;2023-08-06T00:35:51;16.23;;;13.52;;
27412;SDS011;14871;52.702;5.230;2023-08-06T00:38:17;15.80;;;13.27;;
27412;SDS011;14871;52.702;5.230;2023-08-06T00:40:42;16.98;;;13.90;;
27412;SDS011;14871;52.702;5.230;2023-08-06T00:43:08;15.60;;;13.02;;
27412;SDS011;14871;52.702;5.230;2023-08-06T00:45:34;14.45;;;13.00;;
27412;SDS011;14871;52.702;5.230;2023-08-06T00:48:02;14.45;;;12.95;;
27412;SDS011;14871;52.702;5.230;2023-08-06T00:50:29;16.27;;;13.68;;
27412;SDS011;14871;52.702;5.230;2023-08-06T00:52:55;17.38;;;13.18;;
27412;SDS011;14871;52.702;5.230;2023-08-06T00:55:21;16.90;;;14.85;;
27412;SDS011;14871;52.702;5.230;2023-08-06T00:57:47;17.83;;;14.25;;
27412;SDS011;14871;52.702;5.230;2023-08-06T01:00:13;17.25;;;14.32;;
27412;SDS011;14871;52.702;5.230;2023-08-06T01:02:39;19.17;;;15.10;;
27412;SDS011;14871;52.702;5.230;2023-08-06T01:05:04;18.35;;;16.38;;
27412;SDS011;14871;52.702;5.230;2023-08-06T01:10:19;17.38;;;15.50;;
27412;SDS011;14871;52.702;5.230;2023-08-06T01:15:49;17.58;;;15.68;;
27412;SDS011;14871;52.702;5.230;2023-08-06T01:18:17;17.98;;;15.35;;
27412;SDS011;14871;52.702;5.230;2023-08-06T01:20:43;17.17;;;15.38;;
27412;SDS011;14871;52.702;5.230;2023-08-06T01:23:09;19.70;;;17.10;;
27412;SDS011;14871;52.702;5.230;2023-08-06T01:31:18;18.52;;;15.88;;
27412;SDS011;14871;52.702;5.230;2023-08-06T01:33:49;20.33;;;16.70;;
27412;SDS011;14871;52.702;5.230;2023-08-06T01:36:16;20.70;;;16.45;;
27412;SDS011;14871;52.702;5.230;2023-08-06T01:38:44;19.77;;;17.67;;
27412;SDS011;14871;52.702;5.230;2023-08-06T01:41:09;24.95;;;17.70;;
27412;SDS011;14871;52.702;5.230;2023-08-06T01:43:35;20.15;;;16.20;;
27412;SDS011;14871;52.702;5.230;2023-08-06T01:46:00;22.70;;;16.90;;
27412;SDS011;14871;52.702;5.230;2023-08-06T01:48:26;18.92;;;15.25;;
27412;SDS011;14871;52.702;5.230;2023-08-06T01:50:51;17.75;;;15.40;;
27412;SDS011;14871;52.702;5.230;2023-08-06T01:53:17;19.40;;;16.55;;
27412;SDS011;14871;52.702;5.230;2023-08-06T01:55:47;19.90;;;16.33;;
27412;SDS011;14871;52.702;5.230;2023-08-06T01:58:13;20.27;;;17.10;;
27412;SDS011;14871;52.702;5.230;2023-08-06T02:00:39;18.13;;;16.23;;
27412;SDS011;14871;52.702;5.230;2023-08-06T02:03:05;19.83;;;16.10;;
27412;SDS011;14871;52.702;5.230;2023-08-06T02:05:31;19.63;;;17.30;;
27412;SDS011;14871;52.702;5.230;2023-08-06T02:07:57;18.52;;;16.63;;
27412;SDS011;14871;52.702;5.230;2023-08-06T02:10:22;19.92;;;17.08;;
27412;SDS011;14871;52.702;5.230;2023-08-06T02:12:48;20.80;;;16.08;;
27412;SDS011;14871;52.702;5.230;2023-08-06T02:15:13;19.58;;;15.95;;
27412;SDS011;14871;52.702;5.230;2023-08-06T02:17:39;18.35;;;15.88;;
27412;SDS011;14871;52.702;5.230;2023-08-06T02:20:05;22.30;;;16.88;;
27412;SDS011;14871;52.702;5.230;2023-08-06T02:22:31;19.30;;;16.90;;
27412;SDS011;14871;52.702;5.230;2023-08-06T02:24:56;24.83;;;17.63;;
27412;SDS011;14871;52.702;5.230;2023-08-06T02:27:22;19.20;;;16.73;;
27412;SDS011;14871;52.702;5.230;2023-08-06T02:29:47;23.67;;;18.33;;
27412;SDS011;14871;52.702;5.230;2023-08-06T02:32:13;21.90;;;16.63;;
27412;SDS011;14871;52.702;5.230;2023-08-06T02:34:38;22.45;;;18.17;;
27412;SDS011;14871;52.702;5.230;2023-08-06T02:37:04;22.80;;;18.10;;
27412;SDS011;14871;52.702;5.230;2023-08-06T02:39:30;25.05;;;18.20;;
27412;SDS011;14871;52.702;5.230;2023-08-06T02:41:55;20.85;;;17.65;;
27412;SDS011;14871;52.702;5.230;2023-08-06T02:44:21;20.10;;;17.23;;
27412;SDS011;14871;52.702;5.230;2023-08-06T02:46:46;24.23;;;18.77;;
27412;SDS011;14871;52.702;5.230;2023-08-06T02:49:12;24.92;;;17.73;;
27412;SDS011;14871;52.702;5.230;2023-08-06T02:51:38;21.45;;;17.42;;
27412;SDS011;14871;52.702;5.230;2023-08-06T02:54:03;22.65;;;18.33;;
27412;SDS011;14871;52.702;5.230;2023-08-06T02:56:29;21.85;;;16.83;;
27412;SDS011;14871;52.702;5.230;2023-08-06T02:58:55;20.05;;;16.88;;
27412;SDS011;14871;52.702;5.230;2023-08-06T03:01:21;21.92;;;17.17;;
27412;SDS011;14871;52.702;5.230;2023-08-06T03:03:48;22.75;;;17.55;;
27412;SDS011;14871;52.702;5.230;2023-08-06T03:06:13;21.98;;;17.77;;
27412;SDS011;14871;52.702;5.230;2023-08-06T03:08:39;22.83;;;18.08;;
27412;SDS011;14871;52.702;5.230;2023-08-06T03:11:05;22.33;;;18.40;;
27412;SDS011;14871;52.702;5.230;2023-08-06T03:13:30;21.55;;;17.33;;
27412;SDS011;14871;52.702;5.230;2023-08-06T03:15:57;20.88;;;17.92;;
27412;SDS011;14871;52.702;5.230;2023-08-06T03:18:24;21.23;;;17.35;;
27412;SDS011;14871;52.702;5.230;2023-08-06T03:20:51;25.05;;;17.98;;
27412;SDS011;14871;52.702;5.230;2023-08-06T03:23:16;20.33;;;17.48;;
27412;SDS011;14871;52.702;5.230;2023-08-06T03:25:42;25.10;;;18.20;;
27412;SDS011;14871;52.702;5.230;2023-08-06T03:28:08;25.50;;;18.33;;
27412;SDS011;14871;52.702;5.230;2023-08-06T03:30:34;23.58;;;17.90;;
27412;SDS011;14871;52.702;5.230;2023-08-06T03:33:00;20.85;;;17.45;;
27412;SDS011;14871;52.702;5.230;2023-08-06T03:35:25;23.65;;;18.08;;
27412;SDS011;14871;52.702;5.230;2023-08-06T03:37:51;22.13;;;16.70;;
27412;SDS011;14871;52.702;5.230;2023-08-06T03:40:16;20.58;;;18.13;;
27412;SDS011;14871;52.702;5.230;2023-08-06T03:42:42;19.92;;;16.58;;
27412;SDS011;14871;52.702;5.230;2023-08-06T03:45:08;23.20;;;17.02;;
27412;SDS011;14871;52.702;5.230;2023-08-06T03:47:34;19.67;;;15.85;;
27412;SDS011;14871;52.702;5.230;2023-08-06T03:49:59;18.63;;;15.48;;
27412;SDS011;14871;52.702;5.230;2023-08-06T03:52:25;21.02;;;15.40;;
27412;SDS011;14871;52.702;5.230;2023-08-06T03:54:51;22.45;;;16.38;;
27412;SDS011;14871;52.702;5.230;2023-08-06T03:57:16;20.83;;;15.60;;
27412;SDS011;14871;52.702;5.230;2023-08-06T03:59:42;19.88;;;15.35;;
27412;SDS011;14871;52.702;5.230;2023-08-06T04:02:08;18.85;;;15.18;;
27412;SDS011;14871;52.702;5.230;2023-08-06T04:04:33;17.70;;;14.38;;
27412;SDS011;14871;52.702;5.230;2023-08-06T04:06:59;18.25;;;14.23;;
27412;SDS011;14871;52.702;5.230;2023-08-06T04:09:24;18.38;;;14.95;;
27412;SDS011;14871;52.702;5.230;2023-08-06T04:11:50;16.73;;;13.75;;
27412;SDS011;14871;52.702;5.230;2023-08-06T04:14:15;18.35;;;13.63;;
27412;SDS011;14871;52.702;5.230;2023-08-06T04:16:41;17.52;;;14.30;;
27412;SDS011;14871;52.702;5.230;2023-08-06T04:19:07;15.98;;;13.23;;
27412;SDS011;14871;52.702;5.230;2023-08-06T04:21:32;15.80;;;12.98;;
27412;SDS011;14871;52.702;5.230;2023-08-06T04:23:58;14.27;;;12.57;;
27412;SDS011;14871;52.702;5.230;2023-08-06T04:26:24;17.33;;;13.05;;
27412;SDS011;14871;52.702;5.230;2023-08-06T04:28:50;15.13;;;13.23;;
27412;SDS011;14871;52.702;5.230;2023-08-06T04:31:15;16.45;;;12.50;;
27412;SDS011;14871;52.702;5.230;2023-08-06T04:33:41;19.08;;;13.30;;
27412;SDS011;14871;52.702;5.230;2023-08-06T04:36:07;16.73;;;13.25;;
27412;SDS011;14871;52.702;5.230;2023-08-06T04:38:33;17.10;;;13.93;;
27412;SDS011;14871;52.702;5.230;2023-08-06T04:40:58;15.63;;;12.60;;
27412;SDS011;14871;52.702;5.230;2023-08-06T04:43:24;16.15;;;14.07;;
27412;SDS011;14871;52.702;5.230;2023-08-06T04:45:50;15.68;;;13.98;;
27412;SDS011;14871;52.702;5.230;2023-08-06T04:48:18;17.10;;;14.63;;
27412;SDS011;14871;52.702;5.230;2023-08-06T04:50:47;16.85;;;14.23;;
27412;SDS011;14871;52.702;5.230;2023-08-06T04:53:14;18.45;;;14.80;;
27412;SDS011;14871;52.702;5.230;2023-08-06T04:55:40;18.38;;;14.80;;
27412;SDS011;14871;52.702;5.230;2023-08-06T04:58:06;15.85;;;13.60;;
27412;SDS011;14871;52.702;5.230;2023-08-06T05:00:32;16.80;;;14.98;;
27412;SDS011;14871;52.702;5.230;2023-08-06T05:03:01;17.35;;;14.13;;
27412;SDS011;14871;52.702;5.230;2023-08-06T05:05:28;17.55;;;14.52;;
27412;SDS011;14871;52.702;5.230;2023-08-06T05:07:54;17.85;;;15.18;;
27412;SDS011;14871;52.702;5.230;2023-08-06T05:10:21;18.05;;;14.60;;
27412;SDS011;14871;52.702;5.230;2023-08-06T05:12:46;19.10;;;16.33;;
27412;SDS011;14871;52.702;5.230;2023-08-06T05:15:12;17.98;;;15.60;;
27412;SDS011;14871;52.702;5.230;2023-08-06T05:17:38;19.45;;;16.42;;
27412;SDS011;14871;52.702;5.230;2023-08-06T05:20:03;18.75;;;16.20;;
27412;SDS011;14871;52.702;5.230;2023-08-06T05:22:29;19.23;;;16.60;;
27412;SDS011;14871;52.702;5.230;2023-08-06T05:24:55;21.17;;;16.25;;
27412;SDS011;14871;52.702;5.230;2023-08-06T05:27:20;20.05;;;16.30;;
27412;SDS011;14871;52.702;5.230;2023-08-06T05:29:47;18.40;;;16.40;;
27412;SDS011;14871;52.702;5.230;2023-08-06T05:32:13;22.88;;;17.48;;
27412;SDS011;14871;52.702;5.230;2023-08-06T05:34:38;20.98;;;16.52;;
27412;SDS011;14871;52.702;5.230;2023-08-06T05:37:04;19.65;;;16.33;;
27412;SDS011;14871;52.702;5.230;2023-08-06T05:39:30;19.45;;;17.20;;
27412;SDS011;14871;52.702;5.230;2023-08-06T05:41:57;18.48;;;15.98;;
27412;SDS011;14871;52.702;5.230;2023-08-06T05:44:25;19.23;;;17.13;;
27412;SDS011;14871;52.702;5.230;2023-08-06T05:46:51;20.48;;;16.30;;
27412;SDS011;14871;52.702;5.230;2023-08-06T05:49:18;19.98;;;16.75;;
27412;SDS011;14871;52.702;5.230;2023-08-06T05:51:43;18.85;;;16.83;;
27412;SDS011;14871;52.702;5.230;2023-08-06T05:54:09;19.40;;;16.65;;
27412;SDS011;14871;52.702;5.230;2023-08-06T05:56:35;20.98;;;16.02;;
27412;SDS011;14871;52.702;5.230;2023-08-06T05:59:00;19.35;;;15.85;;
27412;SDS011;14871;52.702;5.230;2023-08-06T06:01:26;19.05;;;15.63;;
27412;SDS011;14871;52.702;5.230;2023-08-06T06:03:51;16.30;;;14.48;;
27412;SDS011;14871;52.702;5.230;2023-08-06T06:06:17;16.60;;;14.77;;
27412;SDS011;14871;52.702;5.230;2023-08-06T06:08:44;16.27;;;14.05;;
27412;SDS011;14871;52.702;5.230;2023-08-06T06:11:09;16.20;;;14.02;;
27412;SDS011;14871;52.702;5.230;2023-08-06T06:13:35;14.55;;;13.00;;
27412;SDS011;14871;52.702;5.230;2023-08-06T06:16:01;15.38;;;12.65;;
27412;SDS011;14871;52.702;5.230;2023-08-06T06:18:26;12.98;;;10.98;;
27412;SDS011;14871;52.702;5.230;2023-08-06T06:20:52;12.13;;;10.85;;
27412;SDS011;14871;52.702;5.230;2023-08-06T06:23:17;13.23;;;10.95;;
27412;SDS011;14871;52.702;5.230;2023-08-06T06:25:44;13.13;;;10.27;;
27412;SDS011;14871;52.702;5.230;2023-08-06T06:28:13;11.60;;;9.98;;
27412;SDS011;14871;52.702;5.230;2023-08-06T06:30:40;11.32;;;9.95;;
27412;SDS011;14871;52.702;5.230;2023-08-06T06:33:07;11.10;;;9.77;;
27412;SDS011;14871;52.702;5.230;2023-08-06T06:35:33;11.90;;;10.15;;
27412;SDS011;14871;52.702;5.230;2023-08-06T06:37:59;10.38;;;9.38;;
27412;SDS011;14871;52.702;5.230;2023-08-06T06:40:25;10.88;;;9.77;;
27412;SDS011;14871;52.702;5.230;2023-08-06T06:42:51;10.93;;;9.82;;
27412;SDS011;14871;52.702;5.230;2023-08-06T06:45:16;12.75;;;10.80;;
27412;SDS011;14871;52.702;5.230;2023-08-06T06:47:42;15.15;;;12.57;;
27412;SDS011;14871;52.702;5.230;2023-08-06T06:50:07;16.75;;;13.10;;
27412;SDS011;14871;52.702;5.230;2023-08-06T06:52:34;14.85;;;13.15;;
27412;SDS011;14871;52.702;5.230;2023-08-06T06:55:00;16.25;;;13.48;;
27412;SDS011;14871;52.702;5.230;2023-08-06T06:57:25;15.35;;;13.77;;
27412;SDS011;14871;52.702;5.230;2023-08-06T06:59:51;15.77;;;14.07;;
27412;SDS011;14871;52.702;5.230;2023-08-06T07:02:17;17.20;;;15.32;;
27412;SDS011;14871;52.702;5.230;2023-08-06T07:04:42;17.33;;;14.73;;
27412;SDS011;14871;52.702;5.230;2023-08-06T07:07:08;19.77;;;15.35;;
27412;SDS011;14871;52.702;5.230;2023-08-06T07:09:33;18.45;;;15.90;;
27412;SDS011;14871;52.702;5.230;2023-08-06T07:11:59;17.80;;;15.90;;
27412;SDS011;14871;52.702;5.230;2023-08-06T07:14:25;18.48;;;16.15;;
27412;SDS011;14871;52.702;5.230;2023-08-06T07:16:51;19.90;;;16.65;;
27412;SDS011;14871;52.702;5.230;2023-08-06T07:19:16;21.13;;;17.13;;
27412;SDS011;14871;52.702;5.230;2023-08-06T07:21:43;19.33;;;16.55;;
27412;SDS011;14871;52.702;5.230;2023-08-06T07:24:08;21.92;;;17.00;;
27412;SDS011;14871;52.702;5.230;2023-08-06T07:26:34;23.40;;;17.33;;
27412;SDS011;14871;52.702;5.230;2023-08-06T07:29:00;19.10;;;17.05;;
27412;SDS011;14871;52.702;5.230;2023-08-06T07:31:26;21.92;;;18.83;;
27412;SDS011;14871;52.702;5.230;2023-08-06T07:33:51;22.40;;;17.42;;
27412;SDS011;14871;52.702;5.230;2023-08-06T07:36:18;20.55;;;18.27;;
27412;SDS011;14871;52.702;5.230;2023-08-06T07:38:43;20.00;;;17.67;;
27412;SDS011;14871;52.702;5.230;2023-08-06T07:41:09;20.80;;;18.00;;
27412;SDS011;14871;52.702;5.230;2023-08-06T07:43:35;20.15;;;16.25;;
27412;SDS011;14871;52.702;5.230;2023-08-06T07:46:01;19.95;;;17.83;;
27412;SDS011;14871;52.702;5.230;2023-08-06T07:48:27;19.50;;;17.25;;
27412;SDS011;14871;52.702;5.230;2023-08-06T07:50:53;17.90;;;15.88;;
27412;SDS011;14871;52.702;5.230;2023-08-06T07:53:22;16.85;;;14.15;;
27412;SDS011;14871;52.702;5.230;2023-08-06T07:55:51;17.73;;;15.25;;
27412;SDS011;14871;52.702;5.230;2023-08-06T07:58:18;16.30;;;14.25;;
27412;SDS011;14871;52.702;5.230;2023-08-06T08:00:44;17.98;;;15.63;;
27412;SDS011;14871;52.702;5.230;2023-08-06T08:03:14;16.27;;;14.48;;
27412;SDS011;14871;52.702;5.230;2023-08-06T08:05:43;18.83;;;15.18;;
27412;SDS011;14871;52.702;5.230;2023-08-06T08:08:09;18.77;;;14.90;;
27412;SDS011;14871;52.702;5.230;2023-08-06T08:10:35;19.65;;;15.13;;
27412;SDS011;14871;52.702;5.230;2023-08-06T08:13:02;17.25;;;15.10;;
27412;SDS011;14871;52.702;5.230;2023-08-06T08:15:29;16.20;;;14.32;;
27412;SDS011;14871;52.702;5.230;2023-08-06T08:17:55;17.63;;;13.65;;
27412;SDS011;14871;52.702;5.230;2023-08-06T08:20:21;18.15;;;14.77;;
27412;SDS011;14871;52.702;5.230;2023-08-06T08:22:47;15.38;;;12.82;;
27412;SDS011;14871;52.702;5.230;2023-08-06T08:25:13;12.20;;;8.48;;
27412;SDS011;14871;52.702;5.230;2023-08-06T08:27:40;5.90;;;5.30;;
27412;SDS011;14871;52.702;5.230;2023-08-06T08:30:05;5.25;;;4.32;;
27412;SDS011;14871;52.702;5.230;2023-08-06T08:32:31;5.20;;;3.70;;
27412;SDS011;14871;52.702;5.230;2023-08-06T08:34:57;4.07;;;3.00;;
27412;SDS011;14871;52.702;5.230;2023-08-06T08:37:23;3.80;;;2.70;;
27412;SDS011;14871;52.702;5.230;2023-08-06T08:39:49;5.13;;;3.08;;
27412;SDS011;14871;52.702;5.230;2023-08-06T08:42:15;4.07;;;3.42;;
27412;SDS011;14871;52.702;5.230;2023-08-06T08:44:41;3.47;;;2.97;;
27412;SDS011;14871;52.702;5.230;2023-08-06T08:47:08;4.65;;;3.00;;
27412;SDS011;14871;52.702;5.230;2023-08-06T08:49:35;5.05;;;2.80;;
27412;SDS011;14871;52.702;5.230;2023-08-06T08:52:02;5.57;;;2.95;;
27412;SDS011;14871;52.702;5.230;2023-08-06T08:54:30;4.00;;;3.22;;
27412;SDS011;14871;52.702;5.230;2023-08-06T08:56:57;8.63;;;5.00;;
27412;SDS011;14871;52.702;5.230;2023-08-06T08:59:22;6.28;;;5.35;;
27412;SDS011;14871;52.702;5.230;2023-08-06T09:01:48;6.55;;;5.70;;
27412;SDS011;14871;52.702;5.230;2023-08-06T09:04:18;7.80;;;5.45;;
27412;SDS011;14871;52.702;5.230;2023-08-06T09:06:46;7.65;;;5.28;;
27412;SDS011;14871;52.702;5.230;2023-08-06T09:09:31;6.53;;;4.90;;
27412;SDS011;14871;52.702;5.230;2023-08-06T09:12:01;5.80;;;4.97;;
27412;SDS011;14871;52.702;5.230;2023-08-06T09:14:30;6.68;;;4.85;;
27412;SDS011;14871;52.702;5.230;2023-08-06T09:16:56;6.10;;;4.78;;
27412;SDS011;14871;52.702;5.230;2023-08-06T09:19:22;6.85;;;5.47;;
27412;SDS011;14871;52.702;5.230;2023-08-06T09:21:50;5.80;;;5.20;;
27412;SDS011;14871;52.702;5.230;2023-08-06T09:24:16;6.63;;;4.55;;
27412;SDS011;14871;52.702;5.230;2023-08-06T09:26:43;7.20;;;4.18;;
27412;SDS011;14871;52.702;5.230;2023-08-06T09:29:10;6.25;;;4.03;;
27412;SDS011;14871;52.702;5.230;2023-08-06T09:31:40;6.20;;;3.47;;
27412;SDS011;14871;52.702;5.230;2023-08-06T09:34:21;6.03;;;3.70;;
27412;SDS011;14871;52.702;5.230;2023-08-06T09:36:49;5.85;;;4.22;;
27412;SDS011;14871;52.702;5.230;2023-08-06T09:39:18;6.10;;;3.83;;
27412;SDS011;14871;52.702;5.230;2023-08-06T09:41:46;5.55;;;3.60;;
27412;SDS011;14871;52.702;5.230;2023-08-06T09:44:15;5.40;;;3.90;;
27412;SDS011;14871;52.702;5.230;2023-08-06T09:46:42;5.82;;;3.78;;
27412;SDS011;14871;52.702;5.230;2023-08-06T09:49:12;8.82;;;3.55;;
27412;SDS011;14871;52.702;5.230;2023-08-06T09:51:37;6.88;;;3.92;;
27412;SDS011;14871;52.702;5.230;2023-08-06T09:54:04;6.40;;;3.92;;
27412;SDS011;14871;52.702;5.230;2023-08-06T09:56:32;4.68;;;4.18;;
27412;SDS011;14871;52.702;5.230;2023-08-06T09:59:02;6.07;;;3.95;;
27412;SDS011;14871;52.702;5.230;2023-08-06T10:01:31;7.00;;;3.70;;
27412;SDS011;14871;52.702;5.230;2023-08-06T10:03:59;4.57;;;3.83;;
27412;SDS011;14871;52.702;5.230;2023-08-06T10:06:25;5.32;;;3.53;;
27412;SDS011;14871;52.702;5.230;2023-08-06T10:08:53;6.15;;;3.65;;
27412;SDS011;14871;52.702;5.230;2023-08-06T10:11:19;6.25;;;3.80;;
27412;SDS011;14871;52.702;5.230;2023-08-06T10:13:49;8.20;;;3.75;;
27412;SDS011;14871;52.702;5.230;2023-08-06T10:16:17;6.93;;;3.70;;
27412;SDS011;14871;52.702;5.230;2023-08-06T10:18:44;6.75;;;3.40;;
27412;SDS011;14871;52.702;5.230;2023-08-06T10:21:12;8.10;;;4.00;;
27412;SDS011;14871;52.702;5.230;2023-08-06T10:23:39;5.85;;;3.78;;
27412;SDS011;14871;52.702;5.230;2023-08-06T10:26:06;4.57;;;3.00;;
27412;SDS011;14871;52.702;5.230;2023-08-06T10:28:36;3.90;;;2.85;;
27412;SDS011;14871;52.702;5.230;2023-08-06T10:31:03;4.88;;;3.10;;
27412;SDS011;14871;52.702;5.230;2023-08-06T10:33:41;5.97;;;3.22;;
27412;SDS011;14871;52.702;5.230;2023-08-06T10:36:08;3.15;;;2.78;;
27412;SDS011;14871;52.702;5.230;2023-08-06T10:38:34;7.20;;;3.13;;
27412;SDS011;14871;52.702;5.230;2023-08-06T10:41:09;4.13;;;2.73;;
27412;SDS011;14871;52.702;5.230;2023-08-06T10:43:40;5.00;;;2.90;;
27412;SDS011;14871;52.702;5.230;2023-08-06T10:46:13;4.88;;;2.80;;
27412;SDS011;14871;52.702;5.230;2023-08-06T10:48:51;5.53;;;3.13;;
27412;SDS011;14871;52.702;5.230;2023-08-06T10:51:17;5.47;;;2.88;;
27412;SDS011;14871;52.702;5.230;2023-08-06T10:53:44;4.85;;;2.90;;
27412;SDS011;14871;52.702;5.230;2023-08-06T10:56:14;3.60;;;3.13;;
27412;SDS011;14871;52.702;5.230;2023-08-06T10:58:41;5.22;;;3.25;;
27412;SDS011;14871;52.702;5.230;2023-08-06T11:01:07;5.75;;;3.05;;
27412;SDS011;14871;52.702;5.230;2023-08-06T11:03:33;6.47;;;3.20;;
27412;SDS011;14871;52.702;5.230;2023-08-06T11:05:59;7.28;;;3.58;;
27412;SDS011;14871;52.702;5.230;2023-08-06T11:08:26;4.63;;;3.47;;
27412;SDS011;14871;52.702;5.230;2023-08-06T11:10:52;8.35;;;3.58;;
27412;SDS011;14871;52.702;5.230;2023-08-06T11:13:18;6.30;;;3.35;;
27412;SDS011;14871;52.702;5.230;2023-08-06T11:15:44;3.78;;;2.72;;
27412;SDS011;14871;52.702;5.230;2023-08-06T11:18:10;6.30;;;3.20;;
27412;SDS011;14871;52.702;5.230;2023-08-06T11:20:36;4.07;;;2.47;;
27412;SDS011;14871;52.702;5.230;2023-08-06T11:23:02;4.07;;;2.90;;
27412;SDS011;14871;52.702;5.230;2023-08-06T11:25:29;6.60;;;3.03;;
27412;SDS011;14871;52.702;5.230;2023-08-06T11:27:55;3.55;;;3.05;;
27412;SDS011;14871;52.702;5.230;2023-08-06T11:30:20;4.47;;;3.15;;
27412;SDS011;14871;52.702;5.230;2023-08-06T11:32:49;4.93;;;3.00;;
27412;SDS011;14871;52.702;5.230;2023-08-06T11:35:15;6.07;;;2.80;;
27412;SDS011;14871;52.702;5.230;2023-08-06T11:37:44;5.22;;;2.75;;
27412;SDS011;14871;52.702;5.230;2023-08-06T11:40:14;4.18;;;2.83;;
27412;SDS011;14871;52.702;5.230;2023-08-06T11:42:40;5.43;;;2.20;;
27412;SDS011;14871;52.702;5.230;2023-08-06T11:45:07;4.15;;;2.30;;
27412;SDS011;14871;52.702;5.230;2023-08-06T11:47:36;4.22;;;2.17;;
27412;SDS011;14871;52.702;5.230;2023-08-06T11:50:07;2.92;;;2.10;;
27412;SDS011;14871;52.702;5.230;2023-08-06T11:52:33;3.92;;;2.10;;
27412;SDS011;14871;52.702;5.230;2023-08-06T11:55:02;7.03;;;2.60;;
27412;SDS011;14871;52.702;5.230;2023-08-06T11:57:33;4.68;;;2.38;;
27412;SDS011;14871;52.702;5.230;2023-08-06T12:00:06;2.65;;;1.80;;
27412;SDS011;14871;52.702;5.230;2023-08-06T12:02:34;2.85;;;1.90;;
27412;SDS011;14871;52.702;5.230;2023-08-06T12:05:09;3.30;;;2.30;;
27412;SDS011;14871;52.702;5.230;2023-08-06T12:07:43;3.08;;;2.30;;
27412;SDS011;14871;52.702;5.230;2023-08-06T12:10:11;4.00;;;2.00;;
27412;SDS011;14871;52.702;5.230;2023-08-06T12:12:37;2.53;;;1.98;;
27412;SDS011;14871;52.702;5.230;2023-08-06T12:15:04;4.13;;;2.13;;
27412;SDS011;14871;52.702;5.230;2023-08-06T12:17:31;4.60;;;2.38;;
27412;SDS011;14871;52.702;5.230;2023-08-06T12:19:57;4.03;;;2.45;;
27412;SDS011;14871;52.702;5.230;2023-08-06T12:22:22;4.82;;;2.45;;
27412;SDS011;14871;52.702;5.230;2023-08-06T12:24:48;5.72;;;2.25;;
27412;SDS011;14871;52.702;5.230;2023-08-06T12:27:14;4.53;;;2.40;;
27412;SDS011;14871;52.702;5.230;2023-08-06T12:29:48;2.03;;;1.73;;
27412;SDS011;14871;52.702;5.230;2023-08-06T12:32:13;3.03;;;2.40;;
27412;SDS011;14871;52.702;5.230;2023-08-06T12:34:42;4.30;;;2.20;;
27412;SDS011;14871;52.702;5.230;2023-08-06T12:37:08;3.17;;;2.08;;
27412;SDS011;14871;52.702;5.230;2023-08-06T12:39:35;5.60;;;2.15;;
27412;SDS011;14871;52.702;5.230;2023-08-06T12:42:01;5.13;;;2.63;;
27412;SDS011;14871;52.702;5.230;2023-08-06T12:44:29;4.47;;;2.75;;
27412;SDS011;14871;52.702;5.230;2023-08-06T12:46:55;4.47;;;2.33;;
27412;SDS011;14871;52.702;5.230;2023-08-06T12:49:21;3.00;;;2.38;;
27412;SDS011;14871;52.702;5.230;2023-08-06T12:51:48;3.40;;;2.35;;
27412;SDS011;14871;52.702;5.230;2023-08-06T12:54:14;4.00;;;2.45;;
27412;SDS011;14871;52.702;5.230;2023-08-06T12:56:41;3.90;;;2.40;;
27412;SDS011;14871;52.702;5.230;2023-08-06T12:59:06;3.30;;;2.53;;
27412;SDS011;14871;52.702;5.230;2023-08-06T13:01:32;3.75;;;2.50;;
27412;SDS011;14871;52.702;5.230;2023-08-06T13:03:58;4.30;;;2.30;;
27412;SDS011;14871;52.702;5.230;2023-08-06T13:06:25;5.40;;;2.97;;
27412;SDS011;14871;52.702;5.230;2023-08-06T13:08:50;7.30;;;2.78;;
27412;SDS011;14871;52.702;5.230;2023-08-06T13:11:16;4.47;;;2.35;;
27412;SDS011;14871;52.702;5.230;2023-08-06T13:13:42;2.88;;;2.25;;
27412;SDS011;14871;52.702;5.230;2023-08-06T13:16:07;7.25;;;2.65;;
27412;SDS011;14871;52.702;5.230;2023-08-06T13:18:33;5.82;;;2.88;;
27412;SDS011;14871;52.702;5.230;2023-08-06T13:20:59;4.13;;;2.50;;
27412;SDS011;14871;52.702;5.230;2023-08-06T13:23:24;5.18;;;2.80;;
27412;SDS011;14871;52.702;5.230;2023-08-06T13:25:50;3.85;;;2.22;;
27412;SDS011;14871;52.702;5.230;2023-08-06T13:28:15;3.22;;;2.90;;
27412;SDS011;14871;52.702;5.230;2023-08-06T13:30:41;4.68;;;3.00;;
27412;SDS011;14871;52.702;5.230;2023-08-06T13:33:10;4.82;;;2.55;;
27412;SDS011;14871;52.702;5.230;2023-08-06T13:35:36;5.32;;;2.85;;
27412;SDS011;14871;52.702;5.230;2023-08-06T13:38:02;4.07;;;2.88;;
27412;SDS011;14871;52.702;5.230;2023-08-06T13:40:28;4.28;;;2.80;;
27412;SDS011;14871;52.702;5.230;2023-08-06T13:42:55;5.15;;;3.03;;
27412;SDS011;14871;52.702;5.230;2023-08-06T13:45:20;5.40;;;2.65;;
27412;SDS011;14871;52.702;5.230;2023-08-06T13:47:46;5.05;;;3.00;;
27412;SDS011;14871;52.702;5.230;2023-08-06T13:50:12;5.55;;;3.08;;
27412;SDS011;14871;52.702;5.230;2023-08-06T13:52:38;6.93;;;3.30;;
27412;SDS011;14871;52.702;5.230;2023-08-06T13:55:04;4.57;;;2.90;;
27412;SDS011;14871;52.702;5.230;2023-08-06T13:57:30;3.67;;;2.75;;
27412;SDS011;14871;52.702;5.230;2023-08-06T13:59:56;4.25;;;2.70;;
27412;SDS011;14871;52.702;5.230;2023-08-06T14:02:22;2.22;;;1.90;;
27412;SDS011;14871;52.702;5.230;2023-08-06T14:04:48;3.75;;;2.40;;
27412;SDS011;14871;52.702;5.230;2023-08-06T14:07:13;3.20;;;1.90;;
27412;SDS011;14871;52.702;5.230;2023-08-06T14:09:39;5.60;;;2.47;;
27412;SDS011;14871;52.702;5.230;2023-08-06T14:12:05;4.40;;;2.65;;
27412;SDS011;14871;52.702;5.230;2023-08-06T14:14:31;3.17;;;2.65;;
27412;SDS011;14871;52.702;5.230;2023-08-06T14:16:57;4.07;;;2.70;;
27412;SDS011;14871;52.702;5.230;2023-08-06T14:19:22;2.55;;;2.22;;
27412;SDS011;14871;52.702;5.230;2023-08-06T14:21:48;6.43;;;2.60;;
27412;SDS011;14871;52.702;5.230;2023-08-06T14:24:14;3.70;;;2.42;;
27412;SDS011;14871;52.702;5.230;2023-08-06T14:26:40;3.50;;;2.50;;
27412;SDS011;14871;52.702;5.230;2023-08-06T14:29:06;5.53;;;2.65;;
27412;SDS011;14871;52.702;5.230;2023-08-06T14:31:31;6.18;;;2.72;;
27412;SDS011;14871;52.702;5.230;2023-08-06T14:33:57;5.63;;;2.40;;
27412;SDS011;14871;52.702;5.230;2023-08-06T14:36:23;8.82;;;2.20;;
27412;SDS011;14871;52.702;5.230;2023-08-06T14:38:48;7.10;;;2.22;;
27412;SDS011;14871;52.702;5.230;2023-08-06T14:41:14;7.78;;;1.40;;